Time;durP1;ratioP1;P1;durP2;ratioP2;P2;SDS_P1;SDS_P2;PMS_P1;PMS_P2;Temp;Humidity;BMP_temperature;BMP_pressure;BME280_temperature;BME280_humidity;BME280_pressure;Samples;Min_cycle;Max_cycle;Signal;HPM_P1;HPM_P2
2023/01/24 00:00:34;;;;;;;163.38;52.92;;;;;;;;;;4997051;28;20441;-72
2023/01/24 00:03:00;;;;;;;145.90;50.08;;;;;;;;;;5006278;28;20033;-72
2023/01/24 00:05:26;;;;;;;150.60;53.33;;;;;;;;;;4995249;28;20049;-73
2023/01/24 00:07:52;;;;;;;151.52;51.47;;;;;;;;;;5002235;28;20027;-73
2023/01/24 00:10:18;;;;;;;163.30;54.30;;;;;;;;;;5003182;28;20026;-73
2023/01/24 00:12:44;;;;;;;165.90;51.90;;;;;;;;;;4995889;28;20097;-73
2023/01/24 00:15:10;;;;;;;169.73;56.40;;;;;;;;;;5007919;28;20101;-73
2023/01/24 00:17:36;;;;;;;154.07;51.08;;;;;;;;;;4997042;28;20017;-73
2023/01/24 00:20:05;;;;;;;168.38;53.65;;;;;;;;;;5002118;28;20408;-72
2023/01/24 00:22:31;;;;;;;146.73;52.15;;;;;;;;;;5004909;28;20030;-71
2023/01/24 00:24:57;;;;;;;160.25;53.00;;;;;;;;;;4995013;28;20032;-72
2023/01/24 00:27:23;;;;;;;142.60;50.25;;;;;;;;;;5006200;28;20077;-72
2023/01/24 00:29:49;;;;;;;158.30;55.47;;;;;;;;;;4998946;28;20022;-73
2023/01/24 00:32:15;;;;;;;142.05;49.90;;;;;;;;;;4998547;28;20026;-72
2023/01/24 00:34:41;;;;;;;151.02;51.38;;;;;;;;;;5006068;28;20029;-71
2023/01/24 00:37:07;;;;;;;149.82;51.70;;;;;;;;;;4996897;28;20031;-69
2023/01/24 00:39:33;;;;;;;144.52;52.47;;;;;;;;;;5009305;28;20022;-72
2023/01/24 00:41:59;;;;;;;142.27;53.22;;;;;;;;;;5004292;28;20032;-72
2023/01/24 00:44:25;;;;;;;141.88;50.60;;;;;;;;;;5002226;28;20030;-72
2023/01/24 00:46:54;;;;;;;140.98;51.15;;;;;;;;;;5011423;28;20030;-70
2023/01/24 00:49:20;;;;;;;144.70;50.90;;;;;;;;;;4982624;28;20044;-70
2023/01/24 00:51:46;;;;;;;131.02;49.67;;;;;;;;;;5006223;28;20572;-71
2023/01/24 00:54:12;;;;;;;137.60;50.60;;;;;;;;;;5006977;28;20033;-73
2023/01/24 00:56:38;;;;;;;133.75;51.30;;;;;;;;;;5002589;28;20393;-72
2023/01/24 00:59:04;;;;;;;134.55;50.13;;;;;;;;;;5013037;28;20022;-73
2023/01/24 01:01:30;;;;;;;142.27;51.05;;;;;;;;;;5002762;28;20025;-72
2023/01/24 01:03:56;;;;;;;145.50;54.03;;;;;;;;;;5007223;28;20026;-72
2023/01/24 01:06:22;;;;;;;143.73;51.35;;;;;;;;;;5009865;28;20065;-73
2023/01/24 01:08:48;;;;;;;125.05;47.97;;;;;;;;;;4999539;28;20039;-73
2023/01/24 01:11:15;;;;;;;143.70;50.53;;;;;;;;;;5012798;28;20022;-74
2023/01/24 01:13:41;;;;;;;122.35;48.10;;;;;;;;;;5002760;28;20014;-72
2023/01/24 01:16:08;;;;;;;134.60;50.60;;;;;;;;;;5003583;28;20022;-72
2023/01/24 01:18:35;;;;;;;113.57;46.80;;;;;;;;;;5009282;28;20022;-72
2023/01/24 01:21:01;;;;;;;126.13;49.78;;;;;;;;;;4997804;28;20081;-73
2023/01/24 01:23:27;;;;;;;126.22;47.08;;;;;;;;;;5009117;28;20062;-72
2023/01/24 01:25:53;;;;;;;128.50;50.42;;;;;;;;;;5002175;28;20049;-72
2023/01/24 01:28:19;;;;;;;130.73;50.08;;;;;;;;;;5001095;28;20037;-72
2023/01/24 01:30:49;;;;;;;139.50;51.33;;;;;;;;;;5008849;28;20049;-72
2023/01/24 01:33:15;;;;;;;123.85;50.17;;;;;;;;;;4997251;28;20040;-72
2023/01/24 01:35:41;;;;;;;123.20;50.78;;;;;;;;;;5006595;28;20560;-73
2023/01/24 01:38:07;;;;;;;125.90;48.70;;;;;;;;;;5003852;28;20105;-74
2023/01/24 01:40:33;;;;;;;134.60;50.63;;;;;;;;;;4999712;28;20032;-74
2023/01/24 01:42:59;;;;;;;116.75;49.38;;;;;;;;;;5009867;28;20029;-73
2023/01/24 01:45:45;;;;;;;127.70;50.33;;;;;;;;;;4996786;28;20075;-72
2023/01/24 01:48:11;;;;;;;119.97;48.15;;;;;;;;;;5000710;28;20030;-72
2023/01/24 01:50:40;;;;;;;112.97;46.80;;;;;;;;;;5006462;28;20443;-72
2023/01/24 01:53:06;;;;;;;107.57;45.78;;;;;;;;;;4995464;28;20025;-73
2023/01/24 01:55:34;;;;;;;126.50;49.60;;;;;;;;;;5007493;28;20018;-73
2023/01/24 01:58:00;;;;;;;112.22;45.92;;;;;;;;;;5002199;28;20022;-73
2023/01/24 02:00:27;;;;;;;110.25;46.90;;;;;;;;;;4998589;28;20100;-72
2023/01/24 02:03:37;;;;;;;105.15;44.92;;;;;;;;;;5008112;28;20030;-71
2023/01/24 02:05:42;;;;;;;116.20;48.05;;;;;;;;;;4999869;28;20026;-71
2023/01/24 02:08:11;;;;;;;116.38;45.90;;;;;;;;;;5002324;28;20029;-72
2023/01/24 02:13:22;;;;;;;114.80;47.25;;;;;;;;;;4982476;28;20393;-72
2023/01/24 02:16:02;;;;;;;104.50;45.75;;;;;;;;;;5003619;28;20072;-73
2023/01/24 02:18:29;;;;;;;112.45;49.40;;;;;;;;;;5005900;28;20484;-72
2023/01/24 02:20:55;;;;;;;104.53;45.63;;;;;;;;;;4956226;28;1133937;-73
2023/01/24 02:23:40;;;;;;;109.50;44.42;;;;;;;;;;5010008;28;20023;-73
2023/01/24 02:26:15;;;;;;;115.75;47.10;;;;;;;;;;5003948;28;20113;-73
2023/01/24 02:28:43;;;;;;;112.38;46.25;;;;;;;;;;4996995;28;20030;-74
2023/01/24 02:31:09;;;;;;;107.07;44.45;;;;;;;;;;5009978;28;20025;-71
2023/01/24 02:33:35;;;;;;;111.10;44.97;;;;;;;;;;4999740;28;20491;-72
2023/01/24 02:36:10;;;;;;;105.28;44.72;;;;;;;;;;5003851;28;20033;-72
2023/01/24 02:38:36;;;;;;;99.00;42.88;;;;;;;;;;5007724;28;20514;-72
2023/01/24 02:41:06;;;;;;;108.82;45.92;;;;;;;;;;4996002;28;20065;-72
2023/01/24 02:43:34;;;;;;;102.50;44.80;;;;;;;;;;5007922;28;20030;-72
2023/01/24 02:46:00;;;;;;;99.10;42.50;;;;;;;;;;5002975;28;20033;-71
2023/01/24 02:48:26;;;;;;;109.15;44.88;;;;;;;;;;5000063;28;20497;-71
2023/01/24 02:53:39;;;;;;;107.50;45.67;;;;;;;;;;4999692;28;20049;-73
2023/01/24 02:58:50;;;;;;;90.65;41.83;;;;;;;;;;5008748;28;20554;-72
2023/01/24 03:01:17;;;;;;;87.65;41.97;;;;;;;;;;4980727;28;20391;-72
2023/01/24 03:03:44;;;;;;;93.03;41.67;;;;;;;;;;5006118;28;20076;-73
2023/01/24 03:06:10;;;;;;;103.07;42.55;;;;;;;;;;5003958;28;20038;-75
2023/01/24 03:08:37;;;;;;;96.35;42.13;;;;;;;;;;4998307;28;20064;-73
2023/01/24 03:11:03;;;;;;;97.70;42.15;;;;;;;;;;5009060;28;20033;-73
2023/01/24 03:35:27;;;;;;;88.35;40.50;;;;;;;;;;4983174;28;20310;-73
2023/01/24 03:40:38;;;;;;;106.40;43.13;;;;;;;;;;5001280;28;20064;-72
2023/01/24 03:43:04;;;;;;;99.95;42.70;;;;;;;;;;5007495;28;20025;-73
2023/01/24 03:45:31;;;;;;;94.25;41.45;;;;;;;;;;4997896;28;20032;-72
2023/01/24 03:47:58;;;;;;;108.05;42.40;;;;;;;;;;5001617;28;20030;-73
2023/01/24 03:53:10;;;;;;;93.65;39.72;;;;;;;;;;4995902;28;20080;-74
2023/01/24 03:55:36;;;;;;;92.88;40.42;;;;;;;;;;5006057;28;20416;-73
2023/01/24 03:58:03;;;;;;;97.07;41.67;;;;;;;;;;5001855;28;20026;-73
2023/01/24 04:00:29;;;;;;;99.95;42.30;;;;;;;;;;4998808;28;20034;-73
2023/01/24 04:02:55;;;;;;;105.35;41.80;;;;;;;;;;5009147;28;20025;-71
2023/01/24 04:05:21;;;;;;;114.43;43.03;;;;;;;;;;4996493;28;20022;-72
2023/01/24 04:07:48;;;;;;;104.18;41.55;;;;;;;;;;5004276;28;20034;-72
2023/01/24 04:10:14;;;;;;;114.63;43.55;;;;;;;;;;5002665;28;20105;-72
2023/01/24 04:12:40;;;;;;;120.45;43.80;;;;;;;;;;4995552;28;20022;-74
2023/01/24 04:15:07;;;;;;;111.45;43.30;;;;;;;;;;5008307;28;20026;-72
2023/01/24 04:17:33;;;;;;;107.97;43.35;;;;;;;;;;4997926;28;20026;-72
2023/01/24 04:19:59;;;;;;;111.25;43.97;;;;;;;;;;5003073;28;20472;-74
2023/01/24 04:22:25;;;;;;;112.85;43.83;;;;;;;;;;5010465;28;20041;-71
2023/01/24 04:24:51;;;;;;;104.22;41.08;;;;;;;;;;5001535;28;20030;-73
2023/01/24 04:27:17;;;;;;;108.22;42.83;;;;;;;;;;5013367;28;20029;-72
2023/01/24 04:29:43;;;;;;;109.15;44.08;;;;;;;;;;4998618;28;20030;-73
2023/01/24 04:32:09;;;;;;;106.57;43.08;;;;;;;;;;5006462;28;20029;-72
2023/01/24 04:34:35;;;;;;;108.82;44.10;;;;;;;;;;5001552;28;20027;-73
2023/01/24 04:37:01;;;;;;;106.10;43.47;;;;;;;;;;5008873;28;20041;-72
2023/01/24 04:39:27;;;;;;;108.18;43.78;;;;;;;;;;4998771;28;20498;-72
2023/01/24 04:41:53;;;;;;;98.32;40.60;;;;;;;;;;5006121;28;20026;-72
2023/01/24 04:44:19;;;;;;;95.03;40.50;;;;;;;;;;5001164;28;20030;-72
2023/01/24 04:46:45;;;;;;;102.30;42.60;;;;;;;;;;5008870;28;20029;-72
2023/01/24 04:49:11;;;;;;;90.70;37.92;;;;;;;;;;4997992;28;20404;-72
2023/01/24 04:51:41;;;;;;;94.88;39.53;;;;;;;;;;5006207;28;20112;-74
2023/01/24 04:54:07;;;;;;;90.78;40.40;;;;;;;;;;5002279;28;20483;-74
2023/01/24 04:56:33;;;;;;;100.22;41.05;;;;;;;;;;4997471;28;20110;-72
2023/01/24 04:58:59;;;;;;;88.53;40.05;;;;;;;;;;5008683;28;20072;-74
2023/01/24 05:01:25;;;;;;;97.32;39.83;;;;;;;;;;5005603;28;20018;-74
2023/01/24 05:03:58;;;;;;;103.95;42.45;;;;;;;;;;4999861;28;20491;-74
2023/01/24 05:06:24;;;;;;;98.13;39.33;;;;;;;;;;4999105;28;20026;-73
2023/01/24 05:08:50;;;;;;;96.50;39.53;;;;;;;;;;5007370;28;20034;-72
2023/01/24 05:11:16;;;;;;;97.63;40.45;;;;;;;;;;4993513;28;20022;-73
2023/01/24 05:13:42;;;;;;;106.65;41.67;;;;;;;;;;5002932;28;20101;-73
2023/01/24 05:16:08;;;;;;;97.75;38.22;;;;;;;;;;5001778;28;20105;-73
2023/01/24 05:18:34;;;;;;;97.57;39.53;;;;;;;;;;4995644;28;20113;-72
2023/01/24 05:21:11;;;;;;;95.28;39.25;;;;;;;;;;5007657;28;20117;-73
2023/01/24 05:23:37;;;;;;;111.88;41.95;;;;;;;;;;5000986;28;20033;-73
2023/01/24 05:26:04;;;;;;;103.68;41.67;;;;;;;;;;5004753;28;20030;-73
2023/01/24 05:28:30;;;;;;;110.82;39.00;;;;;;;;;;5008045;28;20693;-71
2023/01/24 05:30:59;;;;;;;110.72;41.33;;;;;;;;;;4997926;28;20117;-72
2023/01/24 05:33:26;;;;;;;113.13;42.45;;;;;;;;;;5010086;28;20481;-73
2023/01/24 05:36:02;;;;;;;115.43;41.42;;;;;;;;;;5002999;28;20026;-73
2023/01/24 05:38:28;;;;;;;111.30;41.08;;;;;;;;;;5001073;28;20053;-72
2023/01/24 05:40:54;;;;;;;111.05;42.33;;;;;;;;;;5003458;28;20034;-72
2023/01/24 05:43:20;;;;;;;116.35;43.97;;;;;;;;;;4998947;28;20030;-73
2023/01/24 05:45:46;;;;;;;119.40;44.10;;;;;;;;;;5007178;28;20046;-72
2023/01/24 05:48:12;;;;;;;121.35;44.17;;;;;;;;;;5005435;28;20092;-71
2023/01/24 05:50:38;;;;;;;111.55;41.95;;;;;;;;;;4999788;28;20058;-72
2023/01/24 05:53:04;;;;;;;109.78;41.15;;;;;;;;;;5009401;28;20026;-71
2023/01/24 05:55:30;;;;;;;108.82;42.80;;;;;;;;;;4998270;28;20018;-71
2023/01/24 05:57:59;;;;;;;112.28;42.60;;;;;;;;;;5003403;28;20085;-73
2023/01/24 06:00:25;;;;;;;115.15;42.78;;;;;;;;;;5007044;28;20132;-72
2023/01/24 06:02:51;;;;;;;111.30;42.63;;;;;;;;;;4996738;28;20425;-72
2023/01/24 06:05:17;;;;;;;119.40;43.38;;;;;;;;;;4981707;28;20109;-73
2023/01/24 06:07:43;;;;;;;112.82;40.95;;;;;;;;;;5006237;28;20497;-74
2023/01/24 06:10:09;;;;;;;115.55;40.60;;;;;;;;;;5004446;28;20446;-72
2023/01/24 06:12:35;;;;;;;110.78;41.33;;;;;;;;;;4998343;28;20023;-72
2023/01/24 06:15:01;;;;;;;113.68;41.83;;;;;;;;;;4995431;28;20500;-74
2023/01/24 06:17:27;;;;;;;109.75;41.63;;;;;;;;;;5008126;28;20045;-73
2023/01/24 06:19:53;;;;;;;110.97;43.15;;;;;;;;;;5003203;28;20038;-74
2023/01/24 06:22:29;;;;;;;105.75;41.00;;;;;;;;;;5000270;28;20030;-73
2023/01/24 06:24:55;;;;;;;102.15;40.83;;;;;;;;;;5009947;28;20022;-72
2023/01/24 06:27:21;;;;;;;106.78;40.45;;;;;;;;;;4997236;28;20558;-72
2023/01/24 06:29:47;;;;;;;101.55;39.53;;;;;;;;;;5005756;28;20503;-72
2023/01/24 06:32:19;;;;;;;99.00;38.53;;;;;;;;;;5004751;28;20018;-71
2023/01/24 06:34:57;;;;;;;103.45;40.13;;;;;;;;;;4997024;28;20056;-71
2023/01/24 06:37:32;;;;;;;91.95;36.80;;;;;;;;;;4981096;28;20014;-74
2023/01/24 06:39:58;;;;;;;103.28;39.60;;;;;;;;;;5004116;28;20022;-73
2023/01/24 06:42:25;;;;;;;95.82;39.30;;;;;;;;;;5006271;28;20506;-73
2023/01/24 06:44:51;;;;;;;98.53;37.85;;;;;;;;;;4995697;28;20492;-72
2023/01/24 06:47:17;;;;;;;115.85;42.13;;;;;;;;;;4980606;28;20039;-72
2023/01/24 06:49:43;;;;;;;101.50;37.78;;;;;;;;;;5005870;28;20022;-74
2023/01/24 06:52:09;;;;;;;93.65;38.15;;;;;;;;;;5004117;28;20021;-72
2023/01/24 06:54:36;;;;;;;98.97;40.60;;;;;;;;;;4999112;28;20033;-73
2023/01/24 06:57:03;;;;;;;93.18;37.53;;;;;;;;;;5009441;28;20033;-74
2023/01/24 06:59:29;;;;;;;105.35;39.38;;;;;;;;;;4998244;28;20026;-72
2023/01/24 07:01:55;;;;;;;101.85;40.92;;;;;;;;;;5004127;28;20022;-73
2023/01/24 07:04:21;;;;;;;104.75;38.50;;;;;;;;;;4995303;28;20050;-74
2023/01/24 07:06:52;;;;;;;109.72;40.70;;;;;;;;;;4993587;28;20469;-73
2023/01/24 07:09:18;;;;;;;93.60;38.00;;;;;;;;;;4994921;28;20034;-73
2023/01/24 07:11:44;;;;;;;103.57;38.95;;;;;;;;;;5006436;28;20033;-72
2023/01/24 07:14:10;;;;;;;103.45;42.00;;;;;;;;;;4998717;28;20129;-74
2023/01/24 07:16:36;;;;;;;103.07;39.40;;;;;;;;;;4998650;28;20019;-73
2023/01/24 07:19:02;;;;;;;110.38;43.05;;;;;;;;;;5005414;28;20039;-71
2023/01/24 07:21:28;;;;;;;112.85;40.33;;;;;;;;;;4993543;28;20491;-71
2023/01/24 07:23:55;;;;;;;106.72;42.00;;;;;;;;;;4985282;28;20038;-70
2023/01/24 07:26:21;;;;;;;106.38;42.75;;;;;;;;;;4991359;28;20034;-72
2023/01/24 07:28:47;;;;;;;102.40;40.08;;;;;;;;;;4991768;28;20052;-72
2023/01/24 07:31:15;;;;;;;95.43;38.35;;;;;;;;;;5008683;28;20105;-71
2023/01/24 07:33:41;;;;;;;100.30;38.40;;;;;;;;;;4999684;28;20045;-71
2023/01/24 07:36:11;;;;;;;100.07;40.42;;;;;;;;;;5001669;28;20473;-71
2023/01/24 07:38:37;;;;;;;92.57;37.30;;;;;;;;;;5006915;28;20044;-71
2023/01/24 07:41:07;;;;;;;97.38;37.30;;;;;;;;;;4995819;28;20543;-70
2023/01/24 07:43:33;;;;;;;94.55;37.58;;;;;;;;;;5006485;28;20457;-71
2023/01/24 07:45:59;;;;;;;96.18;38.78;;;;;;;;;;5001439;28;20030;-69
2023/01/24 07:48:25;;;;;;;98.28;37.90;;;;;;;;;;4999252;28;20030;-71
2023/01/24 07:50:51;;;;;;;92.75;37.50;;;;;;;;;;5008462;28;20022;-72
2023/01/24 07:53:17;;;;;;;96.60;38.40;;;;;;;;;;4979831;28;20018;-73
2023/01/24 07:55:43;;;;;;;93.45;36.47;;;;;;;;;;5003710;28;20571;-71
2023/01/24 07:58:09;;;;;;;90.28;38.75;;;;;;;;;;5002562;28;20022;-73
2023/01/24 08:00:35;;;;;;;95.25;37.28;;;;;;;;;;4998676;28;20034;-72
2023/01/24 08:03:01;;;;;;;89.68;39.00;;;;;;;;;;5008354;28;20037;-74
2023/01/24 08:05:27;;;;;;;93.57;37.38;;;;;;;;;;4996339;28;20047;-74
2023/01/24 08:07:54;;;;;;;91.38;36.75;;;;;;;;;;5009514;28;20685;-73
2023/01/24 08:10:21;;;;;;;83.22;36.40;;;;;;;;;;4997440;28;20092;-72
2023/01/24 08:12:47;;;;;;;81.88;34.85;;;;;;;;;;5008383;28;20026;-72
2023/01/24 08:15:13;;;;;;;74.05;33.90;;;;;;;;;;4994299;28;20018;-74
2023/01/24 08:17:39;;;;;;;85.63;34.80;;;;;;;;;;5004414;28;20022;-72
2023/01/24 08:20:06;;;;;;;83.60;36.65;;;;;;;;;;5002774;28;20053;-72
2023/01/24 08:22:32;;;;;;;75.05;33.63;;;;;;;;;;4998451;28;20048;-73
2023/01/24 08:24:58;;;;;;;82.60;36.10;;;;;;;;;;5008219;28;20401;-72
2023/01/24 08:27:24;;;;;;;78.88;34.35;;;;;;;;;;4995950;28;20428;-73
2023/01/24 08:29:50;;;;;;;81.30;35.60;;;;;;;;;;5003253;28;20026;-72
2023/01/24 08:32:16;;;;;;;80.60;34.30;;;;;;;;;;5003429;28;20480;-72
2023/01/24 08:34:42;;;;;;;83.72;37.28;;;;;;;;;;4996308;28;20019;-72
2023/01/24 08:37:08;;;;;;;83.38;34.72;;;;;;;;;;5007733;28;20495;-72
2023/01/24 08:39:34;;;;;;;86.68;36.38;;;;;;;;;;4997659;28;20072;-72
2023/01/24 08:42:00;;;;;;;92.03;37.53;;;;;;;;;;5002560;28;20026;-72
2023/01/24 08:44:26;;;;;;;100.45;40.20;;;;;;;;;;4997238;28;20445;-73
2023/01/24 08:46:52;;;;;;;85.57;35.28;;;;;;;;;;5008011;28;20104;-70
2023/01/24 08:49:18;;;;;;;93.28;35.40;;;;;;;;;;4995273;28;20034;-73
2023/01/24 08:51:45;;;;;;;83.13;36.65;;;;;;;;;;5004203;28;20033;-73
2023/01/24 08:54:11;;;;;;;87.93;34.83;;;;;;;;;;5001575;28;20022;-74
2023/01/24 08:56:37;;;;;;;96.18;36.55;;;;;;;;;;5007372;28;20037;-74
2023/01/24 08:59:03;;;;;;;95.93;38.83;;;;;;;;;;4997602;28;20453;-71
2023/01/24 09:01:31;;;;;;;96.68;38.30;;;;;;;;;;5010209;28;20026;-74
2023/01/24 09:03:59;;;;;;;93.72;39.10;;;;;;;;;;5004650;28;20033;-74
2023/01/24 09:06:25;;;;;;;94.32;36.80;;;;;;;;;;5015265;28;20059;-73
2023/01/24 09:08:52;;;;;;;85.55;34.22;;;;;;;;;;4997282;28;20022;-74
2023/01/24 09:11:18;;;;;;;104.05;37.95;;;;;;;;;;5011711;28;20041;-73
2023/01/24 09:13:44;;;;;;;97.22;37.13;;;;;;;;;;5007632;28;20025;-73
2023/01/24 09:16:10;;;;;;;85.85;36.78;;;;;;;;;;5012903;28;20493;-74
2023/01/24 09:18:36;;;;;;;91.28;36.58;;;;;;;;;;5018923;28;20260;-73
2023/01/24 09:21:03;;;;;;;90.28;37.03;;;;;;;;;;5019994;28;20038;-73
2023/01/24 09:23:29;;;;;;;89.97;37.58;;;;;;;;;;5015966;28;20105;-74
2023/01/24 09:25:55;;;;;;;94.30;39.05;;;;;;;;;;5013304;28;20046;-74
2023/01/24 09:28:21;;;;;;;99.22;38.17;;;;;;;;;;5011528;28;20053;-73
2023/01/24 09:30:48;;;;;;;91.65;38.13;;;;;;;;;;5013960;28;20449;-74
2023/01/24 09:33:14;;;;;;;90.88;37.97;;;;;;;;;;5014033;28;20452;-71
2023/01/24 09:35:40;;;;;;;85.90;35.05;;;;;;;;;;5014447;28;20053;-73
2023/01/24 09:38:06;;;;;;;90.32;37.47;;;;;;;;;;5011258;28;20030;-72
2023/01/24 09:40:43;;;;;;;97.03;38.28;;;;;;;;;;5012493;28;20507;-73
2023/01/24 09:43:28;;;;;;;93.75;38.25;;;;;;;;;;5011361;28;20026;-72
2023/01/24 09:46:04;;;;;;;98.95;38.30;;;;;;;;;;5012723;28;20042;-72
2023/01/24 09:48:33;;;;;;;95.50;37.88;;;;;;;;;;5012428;28;20046;-73
2023/01/24 09:51:01;;;;;;;92.68;37.50;;;;;;;;;;5011306;28;20038;-73
2023/01/24 09:53:31;;;;;;;96.05;38.25;;;;;;;;;;5014404;28;20033;-73
2023/01/24 09:55:58;;;;;;;92.22;37.67;;;;;;;;;;5014148;28;20057;-72
2023/01/24 09:58:31;;;;;;;94.80;37.28;;;;;;;;;;5014022;28;20108;-72
2023/01/24 10:01:01;;;;;;;101.80;39.10;;;;;;;;;;5014435;28;20400;-71
2023/01/24 10:03:28;;;;;;;92.85;39.22;;;;;;;;;;5012860;28;20061;-72
2023/01/24 10:05:56;;;;;;;95.32;39.15;;;;;;;;;;5014258;28;20426;-71
2023/01/24 10:08:28;;;;;;;92.60;36.72;;;;;;;;;;5012781;28;20026;-72
2023/01/24 10:11:13;;;;;;;96.43;39.08;;;;;;;;;;5014176;28;20476;-73
2023/01/24 10:13:41;;;;;;;85.57;35.08;;;;;;;;;;5014221;28;20502;-73
2023/01/24 10:16:16;;;;;;;83.50;36.03;;;;;;;;;;5014253;28;20107;-73
2023/01/24 10:18:42;;;;;;;90.90;38.42;;;;;;;;;;5013953;28;20018;-72
2023/01/24 10:21:18;;;;;;;92.90;37.75;;;;;;;;;;5014172;28;20125;-72
2023/01/24 10:23:47;;;;;;;92.07;36.80;;;;;;;;;;5014121;28;20038;-73
2023/01/24 10:26:19;;;;;;;89.70;37.58;;;;;;;;;;5014076;28;20030;-70
2023/01/24 10:28:52;;;;;;;103.95;41.50;;;;;;;;;;5013526;28;20026;-72
2023/01/24 10:31:26;;;;;;;93.85;38.33;;;;;;;;;;5013585;28;20061;-73
2023/01/24 10:33:57;;;;;;;94.03;38.25;;;;;;;;;;5012260;28;20113;-72
2023/01/24 10:36:29;;;;;;;94.82;40.83;;;;;;;;;;5013661;28;20548;-74
2023/01/24 10:38:55;;;;;;;92.38;36.13;;;;;;;;;;5012056;28;20080;-73
2023/01/24 10:41:30;;;;;;;91.45;37.58;;;;;;;;;;5012885;28;20021;-73
2023/01/24 10:43:59;;;;;;;85.60;35.72;;;;;;;;;;5013378;28;20026;-72
2023/01/24 10:46:28;;;;;;;89.20;37.28;;;;;;;;;;5013364;28;20026;-73
2023/01/24 10:48:54;;;;;;;80.35;34.65;;;;;;;;;;5013065;28;20404;-72
2023/01/24 10:51:22;;;;;;;94.15;36.47;;;;;;;;;;5013205;28;20026;-73
2023/01/24 10:53:48;;;;;;;91.95;38.85;;;;;;;;;;5012083;28;20104;-74
2023/01/24 10:56:15;;;;;;;88.25;36.97;;;;;;;;;;5013337;28;20049;-75
2023/01/24 10:58:43;;;;;;;83.30;36.70;;;;;;;;;;5012029;28;20021;-73
2023/01/24 11:01:20;;;;;;;92.13;37.53;;;;;;;;;;5013596;28;20026;-73
2023/01/24 11:03:47;;;;;;;87.40;37.22;;;;;;;;;;5013234;28;20508;-73
2023/01/24 11:06:43;;;;;;;88.47;37.85;;;;;;;;;;5013171;28;20030;-74
2023/01/24 11:09:20;;;;;;;91.57;36.67;;;;;;;;;;5000431;28;20092;-73
2023/01/24 11:11:49;;;;;;;90.85;36.00;;;;;;;;;;5014059;28;20117;-74
2023/01/24 11:14:18;;;;;;;96.18;38.10;;;;;;;;;;5014674;28;20022;-72
2023/01/24 11:16:46;;;;;;;94.75;36.25;;;;;;;;;;5013379;28;20033;-73
2023/01/24 11:19:30;;;;;;;100.38;40.05;;;;;;;;;;5013606;28;20025;-74
2023/01/24 11:21:59;;;;;;;90.40;38.28;;;;;;;;;;4998369;28;20089;-75
2023/01/24 11:24:25;;;;;;;95.55;40.45;;;;;;;;;;4970212;28;20105;-75
2023/01/24 11:26:53;;;;;;;98.20;39.13;;;;;;;;;;4972530;28;20027;-75
2023/01/24 11:29:20;;;;;;;94.20;39.58;;;;;;;;;;4972347;28;20031;-73
2023/01/24 11:31:50;;;;;;;88.53;37.53;;;;;;;;;;4972513;28;20153;-75
2023/01/24 11:34:32;;;;;;;93.53;39.95;;;;;;;;;;4972135;28;20109;-74
2023/01/24 11:36:59;;;;;;;;;;;;;;;;;;4972774;28;20192;-72
2023/01/24 11:39:34;;;;;;;100.28;37.63;;;;;;;;;;4971931;28;19906;-75
2023/01/24 11:42:09;;;;;;;93.22;37.90;;;;;;;;;;4973677;28;20019;-73
2023/01/24 11:44:49;;;;;;;101.85;40.38;;;;;;;;;;4972023;28;20437;-74
2023/01/24 11:47:15;;;;;;;91.78;38.38;;;;;;;;;;4973363;28;20050;-73
2023/01/24 11:49:50;;;;;;;91.00;38.17;;;;;;;;;;4974381;28;20055;-74
2023/01/24 11:52:35;;;;;;;99.93;41.33;;;;;;;;;;4973518;28;20030;-73
2023/01/24 11:55:04;;;;;;;94.72;38.88;;;;;;;;;;4972995;28;20027;-73
2023/01/24 11:57:32;;;;;;;98.68;39.40;;;;;;;;;;4973041;28;20033;-75
2023/01/24 12:00:07;;;;;;;81.95;37.10;;;;;;;;;;4972600;28;20027;-73
2023/01/24 12:02:44;;;;;;;98.25;39.83;;;;;;;;;;4972986;28;20030;-73
2023/01/24 12:05:16;;;;;;;95.60;38.75;;;;;;;;;;4973025;28;20022;-74
2023/01/24 12:08:01;;;;;;;93.93;37.70;;;;;;;;;;4972918;28;20038;-74
2023/01/24 12:10:36;;;;;;;91.95;38.50;;;;;;;;;;4972648;28;20030;-71
2023/01/24 12:13:09;;;;;;;95.00;39.80;;;;;;;;;;4972882;28;20125;-73
2023/01/24 12:15:39;;;;;;;91.20;35.17;;;;;;;;;;4971188;28;20023;-72
2023/01/24 12:18:04;;;;;;;96.00;39.20;;;;;;;;;;4972426;28;20022;-73
2023/01/24 12:20:53;;;;;;;94.57;36.38;;;;;;;;;;5005682;23;20100;-72
2023/01/24 12:23:21;;;;;;;96.25;38.75;;;;;;;;;;4992182;28;20069;-71
2023/01/24 12:25:49;;;;;;;89.50;34.90;;;;;;;;;;4992871;28;20022;-72
2023/01/24 12:28:20;;;;;;;88.82;37.63;;;;;;;;;;4992585;28;20026;-71
2023/01/24 12:30:48;;;;;;;96.95;37.40;;;;;;;;;;4992704;28;20034;-71
2023/01/24 12:33:32;;;;;;;99.90;38.70;;;;;;;;;;4995606;28;20393;-71
2023/01/24 12:36:00;;;;;;;100.85;38.85;;;;;;;;;;4994830;28;20034;-72
2023/01/24 12:38:34;;;;;;;99.35;38.85;;;;;;;;;;4996060;28;20018;-72
2023/01/24 12:41:09;;;;;;;91.20;38.90;;;;;;;;;;4996224;28;20399;-73
2023/01/24 12:43:55;;;;;;;94.88;38.20;;;;;;;;;;4996464;28;20026;-71
2023/01/24 12:46:30;;;;;;;93.68;35.63;;;;;;;;;;4986216;28;20034;-72
2023/01/24 12:48:56;;;;;;;97.50;36.45;;;;;;;;;;4995841;28;20626;-71
2023/01/24 12:51:34;;;;;;;89.32;38.85;;;;;;;;;;4995856;28;20026;-72
2023/01/24 12:54:06;;;;;;;86.40;37.08;;;;;;;;;;4996008;28;20027;-71
2023/01/24 12:56:48;;;;;;;89.55;37.67;;;;;;;;;;4995793;28;20022;-71
2023/01/24 12:59:19;;;;;;;91.70;38.83;;;;;;;;;;4995492;28;20023;-71
2023/01/24 13:01:57;;;;;;;91.22;38.55;;;;;;;;;;4996050;28;20369;-71
2023/01/24 13:04:42;;;;;;;87.15;35.67;;;;;;;;;;4995804;28;20033;-72
2023/01/24 13:07:17;;;;;;;90.18;37.70;;;;;;;;;;4995516;28;20041;-71
2023/01/24 13:09:49;;;;;;;94.88;38.65;;;;;;;;;;4995456;28;20080;-74
2023/01/24 13:12:17;;;;;;;102.82;40.35;;;;;;;;;;4995764;28;20022;-71
2023/01/24 13:14:46;;;;;;;81.40;35.95;;;;;;;;;;4995456;28;20512;-70
2023/01/24 13:17:12;;;;;;;88.85;36.40;;;;;;;;;;4995042;28;20481;-72
2023/01/24 13:19:51;;;;;;;79.22;33.95;;;;;;;;;;4991583;28;20087;-70
2023/01/24 13:22:36;;;;;;;79.18;35.67;;;;;;;;;;4975987;28;20031;-72
2023/01/24 13:25:16;;;;;;;82.53;34.63;;;;;;;;;;4976441;28;20030;-71
2023/01/24 13:27:51;;;;;;;72.97;31.95;;;;;;;;;;4981798;28;20023;-72
2023/01/24 13:30:27;;;;;;;58.92;28.17;;;;;;;;;;4977023;28;20039;-71
2023/01/24 13:32:53;;;;;;;58.78;28.10;;;;;;;;;;4991039;28;20029;-69
2023/01/24 13:35:21;;;;;;;59.03;28.00;;;;;;;;;;4994095;28;20031;-71
2023/01/24 13:38:03;;;;;;;56.05;28.45;;;;;;;;;;4996265;28;20070;-72
2023/01/24 13:40:34;;;;;;;48.58;24.35;;;;;;;;;;4994830;28;20113;-72
2023/01/24 13:43:01;;;;;;;58.13;28.27;;;;;;;;;;4995280;28;20022;-74
2023/01/24 13:45:30;;;;;;;57.83;27.90;;;;;;;;;;4996279;28;20038;-72
2023/01/24 13:48:00;;;;;;;53.75;27.45;;;;;;;;;;4997130;28;20022;-72
2023/01/24 13:50:32;;;;;;;49.85;24.73;;;;;;;;;;4996693;28;20022;-71
2023/01/24 13:53:04;;;;;;;56.03;27.92;;;;;;;;;;4997431;28;20029;-72
2023/01/24 13:55:30;;;;;;;59.63;27.58;;;;;;;;;;4999541;28;20069;-72
2023/01/24 13:58:12;;;;;;;61.88;28.17;;;;;;;;;;4998987;28;20081;-73
2023/01/24 14:00:51;;;;;;;60.95;27.92;;;;;;;;;;4998887;28;20037;-72
2023/01/24 14:03:21;;;;;;;54.05;27.27;;;;;;;;;;4999568;28;20026;-71
2023/01/24 14:05:51;;;;;;;64.63;30.00;;;;;;;;;;4999409;28;20105;-73
2023/01/24 14:08:20;;;;;;;69.77;30.67;;;;;;;;;;4999754;28;20033;-73
2023/01/24 14:10:46;;;;;;;67.10;30.30;;;;;;;;;;4999182;28;20026;-73
2023/01/24 14:13:30;;;;;;;66.40;31.58;;;;;;;;;;4999899;28;20061;-72
2023/01/24 14:15:56;;;;;;;64.65;31.05;;;;;;;;;;5000862;28;20109;-72
2023/01/24 14:18:41;;;;;;;68.88;31.67;;;;;;;;;;4998982;28;20443;-72
2023/01/24 14:21:33;;;;;;;73.70;33.08;;;;;;;;;;4998026;28;20038;-72
2023/01/24 14:24:01;;;;;;;70.63;33.55;;;;;;;;;;4984207;28;20420;-72
2023/01/24 14:26:33;;;;;;;86.40;36.53;;;;;;;;;;4994171;28;20499;-71
2023/01/24 14:29:04;;;;;;;93.97;40.05;;;;;;;;;;4994537;28;20081;-71
2023/01/24 14:31:33;;;;;;;97.80;40.08;;;;;;;;;;4995634;28;20480;-72
2023/01/24 14:33:59;;;;;;;92.13;41.10;;;;;;;;;;4994416;28;20023;-72
2023/01/24 14:36:31;;;;;;;98.10;41.20;;;;;;;;;;4993837;28;20033;-72
2023/01/24 14:39:15;;;;;;;97.82;41.03;;;;;;;;;;4994129;28;20500;-72
2023/01/24 14:41:42;;;;;;;100.22;40.60;;;;;;;;;;4993897;28;20031;-72
2023/01/24 14:44:37;;;;;;;90.43;39.38;;;;;;;;;;4995310;28;20089;-72
2023/01/24 14:47:04;;;;;;;98.50;39.90;;;;;;;;;;4980459;28;20038;-70
2023/01/24 14:49:32;;;;;;;106.95;41.35;;;;;;;;;;4993506;28;20552;-72
2023/01/24 14:51:59;;;;;;;101.90;40.55;;;;;;;;;;4994150;28;20045;-73
2023/01/24 14:54:25;;;;;;;105.45;43.58;;;;;;;;;;4993243;28;20102;-73
2023/01/24 14:56:51;;;;;;;107.20;41.75;;;;;;;;;;4993389;28;20031;-70